Time;durP1;ratioP1;P1;durP2;ratioP2;P2;SDS_P1;SDS_P2;PMS_P1;PMS_P2;Temp;Humidity;BMP_temperature;BMP_pressure;BME280_temperature;BME280_humidity;BME280_pressure;Samples;Min_cycle;Max_cycle;Signal;HPM_P1;HPM_P2
2023/12/11 00:02:25;;;;;;;41.13;6.22;;;;;;;;;;5098767;28;20052;-79
2023/12/11 00:04:51;;;;;;;43.63;6.30;;;;;;;;;;5098038;28;20055;-78
2023/12/11 00:07:17;;;;;;;42.67;6.53;;;;;;;;;;5081733;28;20200;-78
2023/12/11 00:09:43;;;;;;;47.13;7.18;;;;;;;;;;5097913;28;20043;-78
2023/12/11 00:12:10;;;;;;;37.97;5.40;;;;;;;;;;5097856;28;20047;-78
2023/12/11 00:14:36;;;;;;;36.75;6.00;;;;;;;;;;5098339;28;20043;-78
2023/12/11 00:17:02;;;;;;;37.97;5.18;;;;;;;;;;5097783;28;20128;-78
2023/12/11 00:19:28;;;;;;;40.08;6.57;;;;;;;;;;5097527;28;20050;-78
2023/12/11 00:21:54;;;;;;;39.65;6.13;;;;;;;;;;5097655;28;20073;-78
2023/12/11 00:24:20;;;;;;;35.80;6.20;;;;;;;;;;5097803;28;20134;-78
2023/12/11 00:26:46;;;;;;;37.67;5.63;;;;;;;;;;5097473;28;20067;-78
2023/12/11 00:29:14;;;;;;;41.47;6.05;;;;;;;;;;5097197;28;20455;-78
2023/12/11 00:31:40;;;;;;;35.05;5.55;;;;;;;;;;5097481;28;20377;-78
2023/12/11 00:34:06;;;;;;;38.28;5.55;;;;;;;;;;5081414;28;20094;-78
2023/12/11 00:36:32;;;;;;;37.47;6.15;;;;;;;;;;5081297;28;20051;-78
2023/12/11 00:38:58;;;;;;;40.45;6.00;;;;;;;;;;5115277;28;20079;-78
2023/12/11 00:41:24;;;;;;;35.17;5.25;;;;;;;;;;5080268;28;20134;-78
2023/12/11 00:43:50;;;;;;;38.90;5.32;;;;;;;;;;5093283;28;20067;-78
2023/12/11 00:46:21;;;;;;;34.08;5.07;;;;;;;;;;5093440;28;20131;-78
2023/12/11 00:48:47;;;;;;;36.45;5.25;;;;;;;;;;5094141;28;20181;-78
2023/12/11 00:51:20;;;;;;;34.70;5.30;;;;;;;;;;5093730;28;20048;-78
2023/12/11 00:53:46;;;;;;;37.90;5.90;;;;;;;;;;5077778;28;20052;-78
2023/12/11 00:56:13;;;;;;;31.55;5.40;;;;;;;;;;5094691;28;20506;-78
2023/12/11 00:58:39;;;;;;;45.90;5.43;;;;;;;;;;5093492;28;20492;-78
2023/12/11 01:01:05;;;;;;;33.35;5.82;;;;;;;;;;5093243;28;20048;-78
2023/12/11 01:03:31;;;;;;;38.45;4.32;;;;;;;;;;5093210;28;20476;-78
2023/12/11 01:05:57;;;;;;;38.20;5.75;;;;;;;;;;5094271;28;20043;-78
2023/12/11 01:08:27;;;;;;;32.40;4.90;;;;;;;;;;5093468;28;20044;-78
2023/12/11 01:10:53;;;;;;;30.52;5.45;;;;;;;;;;5094234;28;20052;-78
2023/12/11 01:13:19;;;;;;;30.17;5.03;;;;;;;;;;5093355;28;20142;-78
2023/12/11 01:15:46;;;;;;;36.13;5.20;;;;;;;;;;5076491;28;20040;-78
2023/12/11 01:18:12;;;;;;;33.35;4.95;;;;;;;;;;5093235;28;20058;-78
2023/12/11 01:20:38;;;;;;;34.03;5.15;;;;;;;;;;5076492;28;20435;-78
2023/12/11 01:23:05;;;;;;;38.00;6.28;;;;;;;;;;5093222;28;20043;-78
2023/12/11 01:25:31;;;;;;;34.72;5.88;;;;;;;;;;5093162;28;20052;-78
2023/12/11 01:27:57;;;;;;;31.08;4.63;;;;;;;;;;5059771;28;20373;-78
2023/12/11 01:30:23;;;;;;;35.22;5.80;;;;;;;;;;5093899;28;20059;-79
2023/12/11 01:32:49;;;;;;;38.38;6.68;;;;;;;;;;5092669;28;20091;-78
2023/12/11 01:35:15;;;;;;;38.65;6.43;;;;;;;;;;5076326;28;20438;-78
2023/12/11 01:37:43;;;;;;;36.97;5.88;;;;;;;;;;5076516;28;20047;-78
2023/12/11 01:40:10;;;;;;;33.78;5.10;;;;;;;;;;5076877;28;20052;-78
2023/12/11 01:42:36;;;;;;;41.15;6.00;;;;;;;;;;5092752;28;20058;-78
2023/12/11 01:45:02;;;;;;;42.28;6.80;;;;;;;;;;5076221;28;20170;-78
2023/12/11 01:47:28;;;;;;;40.97;6.63;;;;;;;;;;5092714;28;20040;-78
2023/12/11 01:49:54;;;;;;;42.22;6.75;;;;;;;;;;5092914;28;20048;-78
2023/12/11 01:52:20;;;;;;;47.47;7.50;;;;;;;;;;5092537;28;20085;-78
2023/12/11 01:54:46;;;;;;;41.70;6.60;;;;;;;;;;5093125;28;20101;-78
2023/12/11 01:57:13;;;;;;;38.55;5.75;;;;;;;;;;5093087;28;20051;-77
2023/12/11 01:59:39;;;;;;;49.30;7.20;;;;;;;;;;5092765;28;20055;-78
2023/12/11 02:02:06;;;;;;;41.97;7.03;;;;;;;;;;5076726;28;20055;-78
2023/12/11 02:04:32;;;;;;;43.28;7.35;;;;;;;;;;5075841;28;20079;-78
2023/12/11 02:06:58;;;;;;;47.50;7.80;;;;;;;;;;5092856;28;20083;-78
2023/12/11 02:09:26;;;;;;;48.78;7.15;;;;;;;;;;5093680;28;20472;-77
2023/12/11 02:11:53;;;;;;;53.35;8.50;;;;;;;;;;5098272;28;20383;-78
2023/12/11 02:14:19;;;;;;;38.33;6.95;;;;;;;;;;5096742;28;20101;-78
2023/12/11 02:16:45;;;;;;;49.90;7.25;;;;;;;;;;5096376;28;20055;-77
2023/12/11 02:19:11;;;;;;;57.95;8.93;;;;;;;;;;5079760;28;20093;-78
2023/12/11 02:21:37;;;;;;;44.55;7.25;;;;;;;;;;5080334;28;20376;-78
2023/12/11 02:24:11;;;;;;;41.95;6.47;;;;;;;;;;5096276;28;20052;-78
2023/12/11 02:26:37;;;;;;;41.03;7.50;;;;;;;;;;5097266;28;20385;-77
2023/12/11 02:29:03;;;;;;;43.00;7.70;;;;;;;;;;5096480;28;20063;-77
2023/12/11 02:31:29;;;;;;;48.80;7.53;;;;;;;;;;5079526;28;20094;-78
2023/12/11 02:33:55;;;;;;;44.92;6.80;;;;;;;;;;5079780;28;20043;-78
2023/12/11 02:36:21;;;;;;;41.65;6.88;;;;;;;;;;5096613;28;20060;-78
2023/12/11 02:38:47;;;;;;;51.47;7.28;;;;;;;;;;5079729;28;20054;-78
2023/12/11 02:41:13;;;;;;;50.38;7.70;;;;;;;;;;5079276;28;20055;-78
2023/12/11 02:43:39;;;;;;;36.90;7.20;;;;;;;;;;5079110;28;20055;-78
2023/12/11 02:46:06;;;;;;;43.72;8.00;;;;;;;;;;5096072;28;20047;-77
2023/12/11 02:48:32;;;;;;;48.13;7.60;;;;;;;;;;5096384;28;20044;-77
2023/12/11 02:50:58;;;;;;;50.03;7.97;;;;;;;;;;5096106;28;20056;-77
2023/12/11 02:53:24;;;;;;;52.58;7.70;;;;;;;;;;5079160;28;20136;-78
2023/12/11 02:55:50;;;;;;;44.05;7.28;;;;;;;;;;5096265;28;20052;-77
2023/12/11 02:58:16;;;;;;;48.53;8.10;;;;;;;;;;5079024;28;20051;-77
2023/12/11 03:00:42;;;;;;;39.17;6.68;;;;;;;;;;5095899;28;20051;-77
2023/12/11 03:03:09;;;;;;;57.70;8.20;;;;;;;;;;5078883;28;20468;-78
2023/12/11 03:05:35;;;;;;;53.92;8.52;;;;;;;;;;5096616;28;20044;-78
2023/12/11 03:08:04;;;;;;;38.03;7.10;;;;;;;;;;5095486;28;20071;-77
2023/12/11 03:10:31;;;;;;;46.38;7.57;;;;;;;;;;5095701;28;20174;-77
2023/12/11 03:12:57;;;;;;;48.90;8.20;;;;;;;;;;5079591;28;20048;-78
2023/12/11 03:15:23;;;;;;;60.42;8.95;;;;;;;;;;5095901;28;20044;-78
2023/12/11 03:17:49;;;;;;;49.40;8.82;;;;;;;;;;5096366;28;20060;-78
2023/12/11 03:20:15;;;;;;;55.72;8.82;;;;;;;;;;5095802;28;20131;-78
2023/12/11 03:22:42;;;;;;;55.78;9.60;;;;;;;;;;5094791;28;20048;-78
2023/12/11 03:25:08;;;;;;;54.33;9.40;;;;;;;;;;5095405;28;20109;-76
2023/12/11 03:27:34;;;;;;;55.55;7.95;;;;;;;;;;5095979;28;20040;-75
2023/12/11 03:30:00;;;;;;;54.33;7.93;;;;;;;;;;5095574;28;20055;-75
2023/12/11 03:32:26;;;;;;;51.67;8.38;;;;;;;;;;5078472;28;20468;-75
2023/12/11 03:34:52;;;;;;;50.97;8.13;;;;;;;;;;5096943;28;20040;-74
2023/12/11 03:37:18;;;;;;;52.38;8.75;;;;;;;;;;5096004;28;20052;-74
2023/12/11 03:39:44;;;;;;;51.63;8.68;;;;;;;;;;5096326;28;20044;-74
2023/12/11 03:42:10;;;;;;;59.78;8.77;;;;;;;;;;5081449;28;20056;-74
2023/12/11 03:44:37;;;;;;;43.50;6.85;;;;;;;;;;5077630;28;20060;-74
2023/12/11 03:47:03;;;;;;;44.08;7.28;;;;;;;;;;5096687;28;20150;-74
2023/12/11 03:49:29;;;;;;;40.50;7.32;;;;;;;;;;5094980;28;20048;-74
2023/12/11 03:51:55;;;;;;;40.85;6.05;;;;;;;;;;5095839;28;20139;-74
2023/12/11 03:54:21;;;;;;;38.40;6.45;;;;;;;;;;5094924;28;20395;-75
2023/12/11 03:56:47;;;;;;;32.55;6.25;;;;;;;;;;5095742;28;20074;-75
2023/12/11 03:59:14;;;;;;;42.30;6.03;;;;;;;;;;5095664;28;20044;-75
2023/12/11 04:01:40;;;;;;;40.88;5.75;;;;;;;;;;5095508;28;20052;-76
2023/12/11 04:04:06;;;;;;;39.67;6.40;;;;;;;;;;5095520;28;20048;-76
2023/12/11 04:06:33;;;;;;;36.95;6.07;;;;;;;;;;5094504;28;20048;-77
2023/12/11 04:08:59;;;;;;;38.65;5.35;;;;;;;;;;5094354;28;20056;-77
2023/12/11 04:11:25;;;;;;;32.35;5.30;;;;;;;;;;5095301;28;20040;-77
2023/12/11 04:13:51;;;;;;;29.27;5.18;;;;;;;;;;5094336;28;20056;-77
2023/12/11 04:16:17;;;;;;;30.58;5.63;;;;;;;;;;5094388;28;20051;-77
2023/12/11 04:18:43;;;;;;;35.72;4.65;;;;;;;;;;5094665;28;20094;-78
2023/12/11 04:21:09;;;;;;;30.45;5.18;;;;;;;;;;5094337;28;20108;-77
2023/12/11 04:23:35;;;;;;;27.50;5.10;;;;;;;;;;5094293;28;20044;-78
2023/12/11 04:26:02;;;;;;;32.65;5.15;;;;;;;;;;5061103;28;20079;-78
2023/12/11 04:28:28;;;;;;;30.77;4.45;;;;;;;;;;5077400;28;20400;-78
2023/12/11 04:30:54;;;;;;;30.88;4.82;;;;;;;;;;5077223;28;20043;-78
2023/12/11 04:33:20;;;;;;;30.90;4.18;;;;;;;;;;5093070;28;20502;-79
2023/12/11 04:35:46;;;;;;;32.13;5.60;;;;;;;;;;5077153;28;20048;-79
2023/12/11 04:38:13;;;;;;;28.63;4.70;;;;;;;;;;5094277;28;20089;-79
2023/12/11 04:40:39;;;;;;;32.10;4.80;;;;;;;;;;5094810;28;20040;-79
2023/12/11 04:43:05;;;;;;;39.03;5.38;;;;;;;;;;5096260;28;20468;-79
2023/12/11 04:45:31;;;;;;;32.97;5.03;;;;;;;;;;5097371;28;20372;-78
2023/12/11 04:47:57;;;;;;;29.33;5.25;;;;;;;;;;5097189;28;20040;-78
2023/12/11 04:50:23;;;;;;;34.38;5.75;;;;;;;;;;5098013;28;20043;-79
2023/12/11 04:52:49;;;;;;;31.77;5.93;;;;;;;;;;5097114;28;20047;-78
2023/12/11 04:55:15;;;;;;;35.10;5.22;;;;;;;;;;5097942;28;20408;-78
2023/12/11 04:57:41;;;;;;;35.95;5.35;;;;;;;;;;5079781;28;20078;-78
2023/12/11 05:00:08;;;;;;;38.88;6.03;;;;;;;;;;5097870;28;20361;-78
2023/12/11 05:02:34;;;;;;;36.85;5.50;;;;;;;;;;5097796;28;20043;-78
2023/12/11 05:05:00;;;;;;;32.85;4.95;;;;;;;;;;5080224;28;20047;-79
2023/12/11 05:07:26;;;;;;;32.50;5.68;;;;;;;;;;5096374;28;20043;-79
2023/12/11 05:09:52;;;;;;;35.92;5.13;;;;;;;;;;5080185;28;20492;-78
2023/12/11 05:12:18;;;;;;;32.75;5.18;;;;;;;;;;5097061;28;20044;-79
2023/12/11 05:14:45;;;;;;;44.30;6.00;;;;;;;;;;5080710;28;20044;-78
2023/12/11 05:17:11;;;;;;;37.78;6.28;;;;;;;;;;5079533;28;20044;-78
2023/12/11 05:19:37;;;;;;;37.92;5.68;;;;;;;;;;5096201;28;20471;-79
2023/12/11 05:22:03;;;;;;;38.25;5.15;;;;;;;;;;5097099;28;20130;-79
2023/12/11 05:24:29;;;;;;;42.35;6.53;;;;;;;;;;5096216;28;20048;-79
2023/12/11 05:26:55;;;;;;;38.30;6.00;;;;;;;;;;5096696;28;20048;-78
2023/12/11 05:29:22;;;;;;;42.90;6.45;;;;;;;;;;5096482;28;20044;-78
2023/12/11 05:31:48;;;;;;;36.72;5.68;;;;;;;;;;5097334;28;20104;-78
2023/12/11 05:34:14;;;;;;;35.63;6.00;;;;;;;;;;5096329;28;20062;-77
2023/12/11 05:36:40;;;;;;;41.88;6.47;;;;;;;;;;5096640;28;20051;-76
2023/12/11 05:39:09;;;;;;;42.08;5.88;;;;;;;;;;5096379;28;20047;-75
2023/12/11 05:41:35;;;;;;;40.55;6.10;;;;;;;;;;5114242;28;20048;-74
2023/12/11 05:44:01;;;;;;;36.72;5.60;;;;;;;;;;5114025;28;20062;-73
2023/12/11 05:46:27;;;;;;;43.58;6.65;;;;;;;;;;5095600;28;20517;-75
2023/12/11 05:48:53;;;;;;;44.72;7.47;;;;;;;;;;5096054;28;20396;-75
2023/12/11 05:51:19;;;;;;;45.70;6.63;;;;;;;;;;5114213;28;20047;-73
2023/12/11 05:53:45;;;;;;;59.13;7.57;;;;;;;;;;5114203;28;20043;-75
2023/12/11 05:56:11;;;;;;;44.35;6.40;;;;;;;;;;5114136;28;20047;-73
2023/12/11 05:58:38;;;;;;;44.45;6.78;;;;;;;;;;5096100;28;20047;-74
2023/12/11 06:01:04;;;;;;;42.17;6.35;;;;;;;;;;5114033;28;20483;-73
2023/12/11 06:03:30;;;;;;;47.38;6.43;;;;;;;;;;5095986;28;20134;-74
2023/12/11 06:05:58;;;;;;;40.20;6.03;;;;;;;;;;5114871;28;20425;-74
2023/12/11 06:08:27;;;;;;;41.67;6.07;;;;;;;;;;5096624;28;20384;-74
2023/12/11 06:10:53;;;;;;;44.15;6.60;;;;;;;;;;5113950;28;20083;-73
2023/12/11 06:13:20;;;;;;;38.97;6.20;;;;;;;;;;5113953;28;20051;-73
2023/12/11 06:15:46;;;;;;;46.45;6.80;;;;;;;;;;5113955;28;20069;-73
2023/12/11 06:18:12;;;;;;;36.45;6.05;;;;;;;;;;5095662;28;20082;-74
2023/12/11 06:20:38;;;;;;;38.63;6.10;;;;;;;;;;5096769;28;20044;-74
2023/12/11 06:23:04;;;;;;;46.47;7.05;;;;;;;;;;5114675;28;20046;-74
2023/12/11 06:25:31;;;;;;;45.78;7.10;;;;;;;;;;5113783;28;20054;-75
2023/12/11 06:27:57;;;;;;;36.95;5.22;;;;;;;;;;5113745;28;20039;-76
2023/12/11 06:30:23;;;;;;;33.03;5.72;;;;;;;;;;5096759;28;20422;-76
2023/12/11 06:32:49;;;;;;;43.28;6.30;;;;;;;;;;5096056;28;20054;-77
2023/12/11 06:35:15;;;;;;;38.15;5.90;;;;;;;;;;5095866;28;20047;-78
2023/12/11 06:37:41;;;;;;;33.95;5.35;;;;;;;;;;5095839;28;20502;-77
2023/12/11 06:40:08;;;;;;;41.15;5.22;;;;;;;;;;5096616;28;20048;-78
2023/12/11 06:42:37;;;;;;;38.22;5.50;;;;;;;;;;5095445;28;20113;-78
2023/12/11 06:45:05;;;;;;;43.63;5.90;;;;;;;;;;5094967;28;20063;-78
2023/12/11 06:47:31;;;;;;;36.03;5.35;;;;;;;;;;5096330;28;20432;-78
2023/12/11 06:49:57;;;;;;;32.60;5.22;;;;;;;;;;5096017;28;20070;-78
2023/12/11 06:52:23;;;;;;;33.83;5.30;;;;;;;;;;5095625;28;20139;-78
2023/12/11 06:54:49;;;;;;;30.45;5.07;;;;;;;;;;5096452;28;20394;-78
2023/12/11 06:57:15;;;;;;;34.35;4.97;;;;;;;;;;5097882;28;20052;-78
2023/12/11 06:59:41;;;;;;;36.55;5.65;;;;;;;;;;5099326;28;20103;-78
2023/12/11 07:02:07;;;;;;;32.40;5.10;;;;;;;;;;5082633;28;20065;-79
2023/12/11 07:04:34;;;;;;;34.60;5.35;;;;;;;;;;5099452;28;20121;-78
2023/12/11 07:07:00;;;;;;;36.88;6.15;;;;;;;;;;5099039;28;20070;-78
2023/12/11 07:09:31;;;;;;;37.38;5.40;;;;;;;;;;5099932;28;20044;-78
2023/12/11 07:11:57;;;;;;;36.78;5.05;;;;;;;;;;5099073;28;20043;-78
2023/12/11 07:14:24;;;;;;;39.30;6.28;;;;;;;;;;5099334;28;20060;-78
2023/12/11 07:16:50;;;;;;;43.85;6.45;;;;;;;;;;5098943;28;20055;-78
2023/12/11 07:19:16;;;;;;;37.60;5.20;;;;;;;;;;5099733;28;20047;-77
2023/12/11 07:21:43;;;;;;;38.00;5.13;;;;;;;;;;5099754;28;20086;-77
2023/12/11 07:24:10;;;;;;;40.08;6.00;;;;;;;;;;5082972;28;20100;-77
2023/12/11 07:26:36;;;;;;;30.38;5.20;;;;;;;;;;5099004;28;20082;-76
2023/12/11 07:29:02;;;;;;;32.88;5.70;;;;;;;;;;5099561;28;20047;-76
2023/12/11 07:31:28;;;;;;;30.70;4.57;;;;;;;;;;5098718;28;20075;-74
2023/12/11 07:33:54;;;;;;;31.30;4.03;;;;;;;;;;5098599;28;20044;-74
2023/12/11 07:36:21;;;;;;;31.90;4.45;;;;;;;;;;5098558;28;20536;-73
2023/12/11 07:38:47;;;;;;;32.92;4.53;;;;;;;;;;5081776;28;20138;-73
2023/12/11 07:41:19;;;;;;;27.20;4.63;;;;;;;;;;5116449;28;20055;-73
2023/12/11 07:43:45;;;;;;;32.78;3.65;;;;;;;;;;5094972;28;20048;-74
2023/12/11 07:46:17;;;;;;;28.48;4.90;;;;;;;;;;5095977;28;20044;-74
2023/12/11 07:48:44;;;;;;;27.27;3.42;;;;;;;;;;5077886;28;20082;-75
2023/12/11 07:51:25;;;;;;;34.85;4.30;;;;;;;;;;5095739;28;20048;-75
2023/12/11 07:53:57;;;;;;;30.25;4.07;;;;;;;;;;5095145;28;20047;-75
2023/12/11 07:56:24;;;;;;;27.63;4.15;;;;;;;;;;5095208;28;20396;-76
2023/12/11 07:58:50;;;;;;;31.45;3.90;;;;;;;;;;5095744;28;20055;-76
2023/12/11 08:01:16;;;;;;;20.52;2.85;;;;;;;;;;5094752;28;20048;-76
2023/12/11 08:03:43;;;;;;;19.48;2.60;;;;;;;;;;5077178;28;20507;-75
2023/12/11 08:06:10;;;;;;;23.55;2.40;;;;;;;;;;5078624;28;20055;-75
2023/12/11 08:08:45;;;;;;;20.63;2.80;;;;;;;;;;5094102;28;20134;-73
2023/12/11 08:11:16;;;;;;;19.73;2.78;;;;;;;;;;5094030;28;20040;-74
2023/12/11 08:13:42;;;;;;;22.02;2.47;;;;;;;;;;5095545;28;20051;-73
2023/12/11 08:16:09;;;;;;;12.68;1.90;;;;;;;;;;5095453;28;20052;-73
2023/12/11 08:18:35;;;;;;;13.60;1.73;;;;;;;;;;5095364;28;20463;-73
2023/12/11 08:21:01;;;;;;;14.35;1.80;;;;;;;;;;5095428;28;20051;-73
2023/12/11 08:23:27;;;;;;;13.77;1.58;;;;;;;;;;5095315;28;20052;-74
2023/12/11 08:25:53;;;;;;;9.93;1.50;;;;;;;;;;5077503;28;20490;-75
2023/12/11 08:28:19;;;;;;;10.30;2.03;;;;;;;;;;5095965;28;20094;-75
2023/12/11 08:30:45;;;;;;;18.15;1.80;;;;;;;;;;5094488;28;20048;-76
2023/12/11 08:33:13;;;;;;;12.40;1.60;;;;;;;;;;5094364;28;20051;-76
2023/12/11 08:35:39;;;;;;;15.90;1.80;;;;;;;;;;5094129;28;20102;-77
2023/12/11 08:38:05;;;;;;;9.77;1.05;;;;;;;;;;5060077;28;20048;-77
2023/12/11 08:40:31;;;;;;;13.52;1.55;;;;;;;;;;5094026;28;20455;-76
2023/12/11 08:42:58;;;;;;;7.47;1.02;;;;;;;;;;5094258;28;20044;-76
2023/12/11 08:45:24;;;;;;;7.30;1.05;;;;;;;;;;5093288;28;20200;-76
2023/12/11 08:47:50;;;;;;;12.68;0.98;;;;;;;;;;5093884;28;20063;-76
2023/12/11 08:50:16;;;;;;;8.57;0.90;;;;;;;;;;5092661;28;20071;-75
2023/12/11 08:52:47;;;;;;;8.25;1.35;;;;;;;;;;5093753;28;20048;-75
2023/12/11 08:55:13;;;;;;;8.05;1.13;;;;;;;;;;5094111;28;20040;-74
2023/12/11 08:57:42;;;;;;;5.80;1.15;;;;;;;;;;5076218;28;20048;-75
2023/12/11 09:00:10;;;;;;;2.80;0.50;;;;;;;;;;5094434;28;20055;-75
2023/12/11 09:02:36;;;;;;;5.50;1.02;;;;;;;;;;5094596;28;20048;-74
2023/12/11 09:05:02;;;;;;;4.82;0.50;;;;;;;;;;5095008;28;20131;-75
2023/12/11 09:07:28;;;;;;;5.82;0.50;;;;;;;;;;5093373;28;20396;-75
2023/12/11 09:09:55;;;;;;;5.25;0.50;;;;;;;;;;5093185;28;20051;-75
2023/12/11 09:12:21;;;;;;;4.35;0.55;;;;;;;;;;5094435;28;20048;-76
2023/12/11 09:14:47;;;;;;;5.18;0.50;;;;;;;;;;5076528;28;20052;-76
2023/12/11 09:17:13;;;;;;;7.68;0.73;;;;;;;;;;5093298;28;20075;-76
2023/12/11 09:19:39;;;;;;;8.57;1.00;;;;;;;;;;5060167;28;20040;-77
2023/12/11 09:22:05;;;;;;;8.70;1.00;;;;;;;;;;5093815;28;20099;-78
2023/12/11 09:24:31;;;;;;;15.75;1.70;;;;;;;;;;5094221;28;20052;-78
2023/12/11 09:26:57;;;;;;;13.00;1.75;;;;;;;;;;5093866;28;20040;-78
2023/12/11 09:29:29;;;;;;;16.60;2.25;;;;;;;;;;5093192;28;20040;-78
2023/12/11 09:31:55;;;;;;;19.70;3.42;;;;;;;;;;5094208;28;20047;-79
2023/12/11 09:34:22;;;;;;;28.23;3.97;;;;;;;;;;5093910;28;20127;-78
2023/12/11 09:36:48;;;;;;;28.92;3.78;;;;;;;;;;5093363;28;20377;-78
2023/12/11 09:39:14;;;;;;;25.00;4.15;;;;;;;;;;5093081;28;20083;-78
2023/12/11 09:41:40;;;;;;;22.98;3.38;;;;;;;;;;5093010;28;20530;-78
2023/12/11 09:44:07;;;;;;;29.23;3.35;;;;;;;;;;5095481;28;20581;-78
2023/12/11 09:46:47;;;;;;;25.83;3.63;;;;;;;;;;5096880;28;20104;-78
2023/12/11 09:49:13;;;;;;;16.88;2.03;;;;;;;;;;5097216;28;20361;-78
2023/12/11 09:51:39;;;;;;;21.50;3.45;;;;;;;;;;5096312;28;20090;-78
2023/12/11 09:54:05;;;;;;;17.42;2.08;;;;;;;;;;5096287;28;20040;-78
2023/12/11 09:56:31;;;;;;;15.02;2.05;;;;;;;;;;5096216;28;20058;-78
2023/12/11 09:58:58;;;;;;;15.13;2.05;;;;;;;;;;5096017;28;20085;-78
2023/12/11 10:01:24;;;;;;;17.10;2.20;;;;;;;;;;5096159;28;20043;-78
2023/12/11 10:03:50;;;;;;;21.27;2.05;;;;;;;;;;5096332;28;20101;-78
2023/12/11 10:06:16;;;;;;;19.48;2.80;;;;;;;;;;5096199;28;20058;-78
2023/12/11 10:08:43;;;;;;;17.35;2.15;;;;;;;;;;5096100;28;20069;-78
2023/12/11 10:11:10;;;;;;;17.77;2.25;;;;;;;;;;5096387;28;20067;-77
2023/12/11 10:13:36;;;;;;;20.60;2.40;;;;;;;;;;5079466;28;20054;-77
2023/12/11 10:16:02;;;;;;;21.73;2.30;;;;;;;;;;5096113;28;20471;-77
2023/12/11 10:18:28;;;;;;;17.75;2.28;;;;;;;;;;5096345;28;20081;-78
2023/12/11 10:20:57;;;;;;;15.85;1.70;;;;;;;;;;5096128;28;20047;-77
2023/12/11 10:23:23;;;;;;;13.40;1.80;;;;;;;;;;5096809;28;20054;-78
2023/12/11 10:25:51;;;;;;;19.17;2.50;;;;;;;;;;5095846;28;20055;-78
2023/12/11 10:28:18;;;;;;;16.25;1.92;;;;;;;;;;5113815;28;20040;-78
2023/12/11 10:30:50;;;;;;;17.15;1.50;;;;;;;;;;5096670;28;20052;-78
2023/12/11 10:33:17;;;;;;;21.88;1.58;;;;;;;;;;5099476;28;20050;-78
2023/12/11 10:35:43;;;;;;;18.00;1.83;;;;;;;;;;5100659;28;20046;-77
2023/12/11 10:38:09;;;;;;;13.05;1.85;;;;;;;;;;5099450;28;20048;-78
2023/12/11 10:40:42;;;;;;;12.15;1.85;;;;;;;;;;5099718;28;20498;-78
2023/12/11 10:43:08;;;;;;;25.67;2.17;;;;;;;;;;5099660;28;20078;-78
2023/12/11 10:45:35;;;;;;;17.40;1.90;;;;;;;;;;5099220;28;20399;-78
2023/12/11 10:48:01;;;;;;;15.15;2.10;;;;;;;;;;5098986;28;20065;-78
2023/12/11 10:50:27;;;;;;;13.98;1.33;;;;;;;;;;5099535;28;20039;-78
2023/12/11 10:52:54;;;;;;;18.17;1.58;;;;;;;;;;5099448;28;20067;-78
2023/12/11 10:55:20;;;;;;;16.38;1.60;;;;;;;;;;5099383;28;20074;-78
2023/12/11 10:57:46;;;;;;;16.08;1.50;;;;;;;;;;5082254;28;20535;-77
2023/12/11 11:00:14;;;;;;;12.35;1.30;;;;;;;;;;5099500;28;20052;-78
2023/12/11 11:02:45;;;;;;;16.98;1.80;;;;;;;;;;5099497;28;20044;-78
2023/12/11 11:05:12;;;;;;;12.75;1.02;;;;;;;;;;5099085;28;20077;-78
2023/12/11 11:07:44;;;;;;;17.35;1.35;;;;;;;;;;5099247;28;20092;-77
2023/12/11 11:10:15;;;;;;;11.43;0.93;;;;;;;;;;5099412;28;20044;-78
2023/12/11 11:12:44;;;;;;;11.52;1.00;;;;;;;;;;5098825;28;20055;-78
2023/12/11 11:15:10;;;;;;;13.18;1.55;;;;;;;;;;5082900;28;20047;-78
2023/12/11 11:18:12;;;;;;;12.25;1.20;;;;;;;;;;5098997;28;20381;-78
2023/12/11 11:20:39;;;;;;;14.80;1.70;;;;;;;;;;4998045;28;20049;-78
2023/12/11 11:23:14;;;;;;;16.60;1.13;;;;;;;;;;5079821;28;20055;-78
2023/12/11 11:25:41;;;;;;;15.40;1.90;;;;;;;;;;5099602;28;20044;-78
2023/12/11 11:28:07;;;;;;;16.38;1.90;;;;;;;;;;5099359;28;20044;-78
2023/12/11 11:30:45;;;;;;;17.80;1.30;;;;;;;;;;5098750;28;20055;-78
2023/12/11 11:33:11;;;;;;;18.08;1.33;;;;;;;;;;5098616;28;20052;-78
2023/12/11 11:35:47;;;;;;;12.88;1.55;;;;;;;;;;5098313;28;20055;-78
2023/12/11 11:38:17;;;;;;;13.75;1.58;;;;;;;;;;5082033;28;20051;-78
2023/12/11 11:40:43;;;;;;;14.63;1.67;;;;;;;;;;5081667;28;20054;-78
2023/12/11 11:43:10;;;;;;;11.35;1.13;;;;;;;;;;5098798;28;20081;-77
2023/12/11 11:45:36;;;;;;;18.45;2.20;;;;;;;;;;5097998;28;20156;-78
2023/12/11 11:48:03;;;;;;;20.10;2.28;;;;;;;;;;5099046;28;20464;-77
2023/12/11 11:50:29;;;;;;;15.65;2.72;;;;;;;;;;5098289;28;20096;-78
2023/12/11 11:53:05;;;;;;;19.52;3.15;;;;;;;;;;5098249;28;20048;-77
2023/12/11 11:55:32;;;;;;;21.20;3.15;;;;;;;;;;5098284;28;20051;-77
2023/12/11 11:57:58;;;;;;;22.63;3.83;;;;;;;;;;5098152;28;20506;-78
2023/12/11 12:00:28;;;;;;;27.23;3.78;;;;;;;;;;5098462;28;20047;-78
2023/12/11 12:02:57;;;;;;;32.90;4.07;;;;;;;;;;5098406;28;20046;-77
2023/12/11 12:05:23;;;;;;;32.20;4.00;;;;;;;;;;5098255;28;20479;-77
2023/12/11 12:07:49;;;;;;;29.35;4.57;;;;;;;;;;5097857;28;20043;-78
2023/12/11 12:10:17;;;;;;;23.17;2.58;;;;;;;;;;5115972;28;20054;-78
2023/12/11 12:12:43;;;;;;;21.48;2.85;;;;;;;;;;5081073;28;20088;-77
2023/12/11 12:15:10;;;;;;;26.35;3.65;;;;;;;;;;5097901;28;20101;-78
2023/12/11 12:17:36;;;;;;;23.13;2.83;;;;;;;;;;5097900;28;20399;-78
2023/12/11 12:20:10;;;;;;;23.73;2.60;;;;;;;;;;5098607;28;20471;-78
2023/12/11 12:22:36;;;;;;;22.38;2.53;;;;;;;;;;5097994;28;20501;-78
2023/12/11 12:25:02;;;;;;;14.93;2.38;;;;;;;;;;5080875;28;20483;-78
2023/12/11 12:27:30;;;;;;;19.52;2.50;;;;;;;;;;5115577;28;20047;-78
2023/12/11 12:29:56;;;;;;;18.38;2.60;;;;;;;;;;5098409;28;20044;-78
2023/12/11 12:32:23;;;;;;;15.55;1.35;;;;;;;;;;5098383;28;20051;-77
2023/12/11 12:34:51;;;;;;;21.75;2.03;;;;;;;;;;5115449;28;20052;-77
2023/12/11 12:37:17;;;;;;;13.25;1.85;;;;;;;;;;5115457;28;20052;-78
2023/12/11 12:39:43;;;;;;;17.27;1.73;;;;;;;;;;5097458;28;20043;-77
2023/12/11 12:42:09;;;;;;;11.23;1.17;;;;;;;;;;5097061;28;20047;-78
2023/12/11 12:44:39;;;;;;;12.13;1.45;;;;;;;;;;5097015;28;20048;-78
2023/12/11 12:47:08;;;;;;;14.63;1.48;;;;;;;;;;5097056;28;20100;-77
2023/12/11 12:49:34;;;;;;;16.25;1.33;;;;;;;;;;5097256;28;20047;-78
2023/12/11 12:52:01;;;;;;;10.25;0.95;;;;;;;;;;5097917;28;20051;-78
2023/12/11 12:54:27;;;;;;;10.27;0.85;;;;;;;;;;5097012;28;20058;-78
2023/12/11 12:56:55;;;;;;;10.43;0.82;;;;;;;;;;5096801;28;20052;-78
2023/12/11 12:59:21;;;;;;;7.32;0.57;;;;;;;;;;5115046;28;20055;-78
2023/12/11 13:01:48;;;;;;;8.88;0.45;;;;;;;;;;5097061;28;20391;-78
2023/12/11 13:04:14;;;;;;;7.03;0.40;;;;;;;;;;5096909;28;20051;-78
2023/12/11 13:06:41;;;;;;;8.45;0.57;;;;;;;;;;5096801;28;20476;-78
2023/12/11 13:09:10;;;;;;;9.13;0.63;;;;;;;;;;5096899;28;20044;-78
2023/12/11 13:11:45;;;;;;;6.20;0.55;;;;;;;;;;5097710;28;20152;-78
2023/12/11 13:14:11;;;;;;;5.80;0.30;;;;;;;;;;5097060;28;20055;-78
2023/12/11 13:16:44;;;;;;;5.25;0.60;;;;;;;;;;5115524;28;20043;-78
2023/12/11 13:19:11;;;;;;;5.20;0.30;;;;;;;;;;5097023;28;20071;-78
2023/12/11 13:21:37;;;;;;;6.35;0.40;;;;;;;;;;5080822;28;20070;-78
2023/12/11 13:24:04;;;;;;;4.50;0.47;;;;;;;;;;5079677;28;20050;-78
2023/12/11 13:26:31;;;;;;;5.82;0.40;;;;;;;;;;5096506;28;20046;-78
2023/12/11 13:28:57;;;;;;;3.63;0.47;;;;;;;;;;5079675;28;20391;-78
2023/12/11 13:31:24;;;;;;;4.50;0.13;;;;;;;;;;5079616;28;20043;-78
2023/12/11 13:33:50;;;;;;;3.95;0.20;;;;;;;;;;5096340;28;20491;-78
2023/12/11 13:36:16;;;;;;;6.78;0.20;;;;;;;;;;5096683;28;20093;-78
2023/12/11 13:38:43;;;;;;;4.55;0.20;;;;;;;;;;5114970;28;20048;-78
2023/12/11 13:41:09;;;;;;;7.13;0.40;;;;;;;;;;5096423;28;20043;-78
2023/12/11 13:43:35;;;;;;;4.47;0.20;;;;;;;;;;5096386;28;20051;-78
2023/12/11 13:46:03;;;;;;;4.38;0.20;;;;;;;;;;5079339;28;20055;-78
2023/12/11 13:48:29;;;;;;;9.23;0.30;;;;;;;;;;5096013;28;20079;-78
2023/12/11 13:50:55;;;;;;;6.45;0.30;;;;;;;;;;5096288;28;20179;-79
2023/12/11 13:53:22;;;;;;;5.95;0.40;;;;;;;;;;5096357;28;20048;-78
2023/12/11 13:55:48;;;;;;;4.68;0.30;;;;;;;;;;5080173;28;20047;-78
2023/12/11 13:58:14;;;;;;;5.93;0.47;;;;;;;;;;5096476;28;20467;-77
2023/12/11 14:00:41;;;;;;;4.82;0.45;;;;;;;;;;5097031;28;20047;-78
2023/12/11 14:03:07;;;;;;;5.05;0.20;;;;;;;;;;5096400;28;20047;-78
2023/12/11 14:05:33;;;;;;;7.72;0.40;;;;;;;;;;5115952;28;20043;-78
2023/12/11 14:07:59;;;;;;;3.83;0.40;;;;;;;;;;5100371;28;20043;-78
2023/12/11 14:10:30;;;;;;;3.35;0.30;;;;;;;;;;5100283;28;20494;-78
2023/12/11 14:12:57;;;;;;;4.95;0.30;;;;;;;;;;5118904;28;20468;-78
2023/12/11 14:15:23;;;;;;;2.92;0.43;;;;;;;;;;5118179;28;20126;-78
2023/12/11 14:17:50;;;;;;;5.60;0.40;;;;;;;;;;5100150;28;20100;-78
2023/12/11 14:20:16;;;;;;;4.45;0.25;;;;;;;;;;5100927;28;20066;-78
2023/12/11 14:22:42;;;;;;;5.85;0.30;;;;;;;;;;5100930;28;20048;-78
2023/12/11 14:25:08;;;;;;;4.88;0.35;;;;;;;;;;5083185;28;20055;-78
2023/12/11 14:27:34;;;;;;;4.82;0.20;;;;;;;;;;5099797;28;20083;-77
2023/12/11 14:30:01;;;;;;;6.93;0.30;;;;;;;;;;5118699;28;20048;-78